sensor_id;sensor_type;location;lat;lon;timestamp;P1;durP1;ratioP1;P2;durP2;ratioP2
26530;SDS011;14201;43.188;24.160;2022-09-12T00:00:29;2.80;;;1.40;;
26530;SDS011;14201;43.188;24.160;2022-09-12T00:02:56;3.63;;;1.60;;
26530;SDS011;14201;43.188;24.160;2022-09-12T00:05:23;2.85;;;1.50;;
26530;SDS011;14201;43.188;24.160;2022-09-12T00:07:49;2.92;;;1.40;;
26530;SDS011;14201;43.188;24.160;2022-09-12T00:10:15;1.45;;;1.02;;
26530;SDS011;14201;43.188;24.160;2022-09-12T00:12:41;2.47;;;1.42;;
26530;SDS011;14201;43.188;24.160;2022-09-12T00:15:06;3.35;;;1.30;;
26530;SDS011;14201;43.188;24.160;2022-09-12T00:17:33;4.90;;;1.58;;
26530;SDS011;14201;43.188;24.160;2022-09-12T00:19:59;2.53;;;1.20;;
26530;SDS011;14201;43.188;24.160;2022-09-12T00:22:25;1.70;;;1.20;;
26530;SDS011;14201;43.188;24.160;2022-09-12T00:24:51;1.80;;;1.38;;
26530;SDS011;14201;43.188;24.160;2022-09-12T00:27:16;2.75;;;1.40;;
26530;SDS011;14201;43.188;24.160;2022-09-12T00:29:42;3.65;;;1.20;;
26530;SDS011;14201;43.188;24.160;2022-09-12T00:32:08;2.65;;;1.30;;
26530;SDS011;14201;43.188;24.160;2022-09-12T00:34:33;1.58;;;1.05;;
26530;SDS011;14201;43.188;24.160;2022-09-12T00:37:00;2.28;;;1.33;;
26530;SDS011;14201;43.188;24.160;2022-09-12T00:39:25;4.38;;;1.60;;
26530;SDS011;14201;43.188;24.160;2022-09-12T00:41:51;3.42;;;1.20;;
26530;SDS011;14201;43.188;24.160;2022-09-12T00:46:46;3.25;;;1.55;;
26530;SDS011;14201;43.188;24.160;2022-09-12T00:52:00;2.53;;;1.35;;
26530;SDS011;14201;43.188;24.160;2022-09-12T00:54:31;4.75;;;1.40;;
26530;SDS011;14201;43.188;24.160;2022-09-12T00:57:02;4.10;;;1.63;;
26530;SDS011;14201;43.188;24.160;2022-09-12T00:59:31;3.42;;;1.30;;
26530;SDS011;14201;43.188;24.160;2022-09-12T01:02:02;1.92;;;1.40;;
26530;SDS011;14201;43.188;24.160;2022-09-12T01:04:28;3.67;;;1.48;;
26530;SDS011;14201;43.188;24.160;2022-09-12T01:06:55;3.58;;;1.50;;
26530;SDS011;14201;43.188;24.160;2022-09-12T01:09:22;1.80;;;1.55;;
26530;SDS011;14201;43.188;24.160;2022-09-12T01:11:50;2.97;;;1.55;;
26530;SDS011;14201;43.188;24.160;2022-09-12T01:14:17;1.92;;;1.30;;
26530;SDS011;14201;43.188;24.160;2022-09-12T01:16:43;3.10;;;1.50;;
26530;SDS011;14201;43.188;24.160;2022-09-12T01:24:50;4.25;;;1.50;;
26530;SDS011;14201;43.188;24.160;2022-09-12T01:27:35;2.28;;;1.52;;
26530;SDS011;14201;43.188;24.160;2022-09-12T01:30:37;3.30;;;1.70;;
26530;SDS011;14201;43.188;24.160;2022-09-12T01:36:26;4.18;;;1.00;;
26530;SDS011;14201;43.188;24.160;2022-09-12T01:44:13;1.75;;;1.05;;
26530;SDS011;14201;43.188;24.160;2022-09-12T01:49:26;3.38;;;1.10;;
26530;SDS011;14201;43.188;24.160;2022-09-12T01:52:09;2.25;;;1.10;;
26530;SDS011;14201;43.188;24.160;2022-09-12T01:57:36;0.90;;;0.90;;
26530;SDS011;14201;43.188;24.160;2022-09-12T02:00:24;3.45;;;1.20;;
26530;SDS011;14201;43.188;24.160;2022-09-12T02:02:58;2.22;;;1.10;;
26530;SDS011;14201;43.188;24.160;2022-09-12T02:08:10;2.72;;;1.00;;
26530;SDS011;14201;43.188;24.160;2022-09-12T02:10:42;1.77;;;0.90;;
26530;SDS011;14201;43.188;24.160;2022-09-12T02:13:17;3.55;;;1.15;;
26530;SDS011;14201;43.188;24.160;2022-09-12T02:15:53;1.15;;;0.80;;
26530;SDS011;14201;43.188;24.160;2022-09-12T02:18:24;1.73;;;0.95;;
26530;SDS011;14201;43.188;24.160;2022-09-12T02:20:53;1.00;;;0.80;;
26530;SDS011;14201;43.188;24.160;2022-09-12T02:23:25;4.50;;;1.13;;
26530;SDS011;14201;43.188;24.160;2022-09-12T02:25:53;4.38;;;0.95;;
26530;SDS011;14201;43.188;24.160;2022-09-12T02:28:41;5.15;;;1.17;;
26530;SDS011;14201;43.188;24.160;2022-09-12T02:34:08;3.17;;;1.13;;
26530;SDS011;14201;43.188;24.160;2022-09-12T02:39:37;2.17;;;1.00;;
26530;SDS011;14201;43.188;24.160;2022-09-12T02:42:03;2.30;;;1.00;;
26530;SDS011;14201;43.188;24.160;2022-09-12T02:44:29;2.42;;;1.00;;
26530;SDS011;14201;43.188;24.160;2022-09-12T02:47:01;3.08;;;0.88;;
26530;SDS011;14201;43.188;24.160;2022-09-12T02:49:49;3.70;;;1.00;;
26530;SDS011;14201;43.188;24.160;2022-09-12T02:52:15;2.97;;;1.10;;
26530;SDS011;14201;43.188;24.160;2022-09-12T02:54:41;3.05;;;1.13;;
26530;SDS011;14201;43.188;24.160;2022-09-12T02:57:15;2.22;;;1.00;;
26530;SDS011;14201;43.188;24.160;2022-09-12T02:59:42;1.13;;;0.80;;
26530;SDS011;14201;43.188;24.160;2022-09-12T03:08:11;4.80;;;1.00;;
26530;SDS011;14201;43.188;24.160;2022-09-12T03:13:22;1.70;;;1.02;;
26530;SDS011;14201;43.188;24.160;2022-09-12T03:19:01;1.30;;;1.00;;
26530;SDS011;14201;43.188;24.160;2022-09-12T03:21:32;3.53;;;0.80;;
26530;SDS011;14201;43.188;24.160;2022-09-12T03:24:22;3.17;;;1.00;;
26530;SDS011;14201;43.188;24.160;2022-09-12T03:26:54;0.95;;;0.90;;
26530;SDS011;14201;43.188;24.160;2022-09-12T03:29:29;2.80;;;1.15;;
26530;SDS011;14201;43.188;24.160;2022-09-12T03:31:56;1.73;;;0.82;;
26530;SDS011;14201;43.188;24.160;2022-09-12T03:34:23;3.50;;;0.98;;
26530;SDS011;14201;43.188;24.160;2022-09-12T03:36:50;4.03;;;1.20;;
26530;SDS011;14201;43.188;24.160;2022-09-12T03:39:19;5.63;;;1.17;;
26530;SDS011;14201;43.188;24.160;2022-09-12T03:41:45;1.48;;;1.00;;
26530;SDS011;14201;43.188;24.160;2022-09-12T03:44:11;2.45;;;1.20;;
26530;SDS011;14201;43.188;24.160;2022-09-12T03:46:36;2.28;;;1.05;;
26530;SDS011;14201;43.188;24.160;2022-09-12T03:49:02;1.42;;;1.00;;
26530;SDS011;14201;43.188;24.160;2022-09-12T03:51:28;2.15;;;0.98;;
26530;SDS011;14201;43.188;24.160;2022-09-12T03:53:53;4.22;;;0.98;;
26530;SDS011;14201;43.188;24.160;2022-09-12T03:56:19;1.50;;;0.80;;
26530;SDS011;14201;43.188;24.160;2022-09-12T03:58:45;1.00;;;0.90;;
26530;SDS011;14201;43.188;24.160;2022-09-12T04:01:12;4.85;;;1.17;;
26530;SDS011;14201;43.188;24.160;2022-09-12T04:03:41;1.38;;;1.00;;
26530;SDS011;14201;43.188;24.160;2022-09-12T04:06:09;1.58;;;1.10;;
26530;SDS011;14201;43.188;24.160;2022-09-12T04:08:36;2.83;;;1.10;;
26530;SDS011;14201;43.188;24.160;2022-09-12T04:11:09;2.70;;;1.10;;
26530;SDS011;14201;43.188;24.160;2022-09-12T04:13:37;5.13;;;1.15;;
26530;SDS011;14201;43.188;24.160;2022-09-12T04:16:03;1.52;;;0.90;;
26530;SDS011;14201;43.188;24.160;2022-09-12T04:18:30;3.38;;;1.10;;
26530;SDS011;14201;43.188;24.160;2022-09-12T04:20:56;2.38;;;1.42;;
26530;SDS011;14201;43.188;24.160;2022-09-12T04:23:22;2.72;;;1.30;;
26530;SDS011;14201;43.188;24.160;2022-09-12T04:25:54;2.40;;;1.27;;
26530;SDS011;14201;43.188;24.160;2022-09-12T04:28:21;2.17;;;1.20;;
26530;SDS011;14201;43.188;24.160;2022-09-12T04:30:47;3.20;;;1.20;;
26530;SDS011;14201;43.188;24.160;2022-09-12T04:33:13;1.75;;;1.10;;
26530;SDS011;14201;43.188;24.160;2022-09-12T04:35:39;12.80;;;1.58;;
26530;SDS011;14201;43.188;24.160;2022-09-12T04:38:06;5.15;;;1.00;;
26530;SDS011;14201;43.188;24.160;2022-09-12T04:40:32;3.75;;;1.20;;
26530;SDS011;14201;43.188;24.160;2022-09-12T04:42:58;3.47;;;1.20;;
26530;SDS011;14201;43.188;24.160;2022-09-12T04:45:23;1.95;;;1.20;;
26530;SDS011;14201;43.188;24.160;2022-09-12T04:47:49;3.30;;;1.10;;
26530;SDS011;14201;43.188;24.160;2022-09-12T04:50:16;3.78;;;0.93;;
26530;SDS011;14201;43.188;24.160;2022-09-12T04:52:42;2.28;;;0.90;;
26530;SDS011;14201;43.188;24.160;2022-09-12T04:55:08;1.45;;;1.08;;
26530;SDS011;14201;43.188;24.160;2022-09-12T04:57:34;2.50;;;0.90;;
26530;SDS011;14201;43.188;24.160;2022-09-12T05:00:00;2.55;;;1.05;;
26530;SDS011;14201;43.188;24.160;2022-09-12T05:02:26;2.33;;;0.88;;
26530;SDS011;14201;43.188;24.160;2022-09-12T05:04:53;1.40;;;0.90;;
26530;SDS011;14201;43.188;24.160;2022-09-12T05:07:18;2.75;;;0.80;;
26530;SDS011;14201;43.188;24.160;2022-09-12T05:09:44;1.45;;;1.00;;
26530;SDS011;14201;43.188;24.160;2022-09-12T05:12:10;1.88;;;1.00;;
26530;SDS011;14201;43.188;24.160;2022-09-12T05:14:36;2.80;;;0.90;;
26530;SDS011;14201;43.188;24.160;2022-09-12T05:17:02;3.60;;;0.80;;
26530;SDS011;14201;43.188;24.160;2022-09-12T05:19:30;3.25;;;0.90;;
26530;SDS011;14201;43.188;24.160;2022-09-12T05:21:56;2.13;;;1.00;;
26530;SDS011;14201;43.188;24.160;2022-09-12T05:24:22;1.13;;;0.82;;
26530;SDS011;14201;43.188;24.160;2022-09-12T05:26:48;1.42;;;0.70;;
26530;SDS011;14201;43.188;24.160;2022-09-12T05:29:14;1.52;;;1.00;;
26530;SDS011;14201;43.188;24.160;2022-09-12T05:31:40;2.70;;;0.90;;
26530;SDS011;14201;43.188;24.160;2022-09-12T05:34:06;1.35;;;0.90;;
26530;SDS011;14201;43.188;24.160;2022-09-12T05:36:34;1.88;;;0.93;;
26530;SDS011;14201;43.188;24.160;2022-09-12T05:39:01;1.42;;;0.88;;
26530;SDS011;14201;43.188;24.160;2022-09-12T05:41:29;1.20;;;0.80;;
26530;SDS011;14201;43.188;24.160;2022-09-12T05:43:57;2.25;;;0.98;;
26530;SDS011;14201;43.188;24.160;2022-09-12T05:46:25;2.42;;;0.90;;
26530;SDS011;14201;43.188;24.160;2022-09-12T05:48:53;1.33;;;0.90;;
26530;SDS011;14201;43.188;24.160;2022-09-12T05:51:24;3.05;;;1.00;;
26530;SDS011;14201;43.188;24.160;2022-09-12T05:53:52;2.05;;;0.90;;
26530;SDS011;14201;43.188;24.160;2022-09-12T05:56:21;2.03;;;0.80;;
26530;SDS011;14201;43.188;24.160;2022-09-12T05:58:56;1.73;;;0.80;;
26530;SDS011;14201;43.188;24.160;2022-09-12T06:01:25;1.05;;;0.80;;
26530;SDS011;14201;43.188;24.160;2022-09-12T06:03:52;2.70;;;0.80;;
26530;SDS011;14201;43.188;24.160;2022-09-12T06:06:20;2.15;;;0.80;;
26530;SDS011;14201;43.188;24.160;2022-09-12T06:08:49;1.02;;;0.68;;
26530;SDS011;14201;43.188;24.160;2022-09-12T06:11:17;1.73;;;0.70;;
26530;SDS011;14201;43.188;24.160;2022-09-12T06:13:45;2.78;;;0.90;;
26530;SDS011;14201;43.188;24.160;2022-09-12T06:16:12;3.35;;;0.70;;
26530;SDS011;14201;43.188;24.160;2022-09-12T06:18:40;1.40;;;0.80;;
26530;SDS011;14201;43.188;24.160;2022-09-12T06:21:10;1.77;;;0.80;;
26530;SDS011;14201;43.188;24.160;2022-09-12T06:26:04;1.65;;;0.60;;
26530;SDS011;14201;43.188;24.160;2022-09-12T06:28:33;2.85;;;0.93;;
26530;SDS011;14201;43.188;24.160;2022-09-12T06:31:04;1.55;;;0.70;;
26530;SDS011;14201;43.188;24.160;2022-09-12T06:33:33;3.42;;;0.82;;
26530;SDS011;14201;43.188;24.160;2022-09-12T06:36:01;2.05;;;0.60;;
26530;SDS011;14201;43.188;24.160;2022-09-12T06:38:37;1.33;;;0.65;;
26530;SDS011;14201;43.188;24.160;2022-09-12T06:41:04;1.60;;;0.60;;
26530;SDS011;14201;43.188;24.160;2022-09-12T06:43:31;2.25;;;0.70;;
26530;SDS011;14201;43.188;24.160;2022-09-12T06:45:57;2.35;;;0.70;;
26530;SDS011;14201;43.188;24.160;2022-09-12T06:48:23;1.20;;;0.60;;
26530;SDS011;14201;43.188;24.160;2022-09-12T06:50:59;1.70;;;0.77;;
26530;SDS011;14201;43.188;24.160;2022-09-12T06:53:27;2.05;;;0.73;;
26530;SDS011;14201;43.188;24.160;2022-09-12T06:55:55;2.55;;;0.55;;
26530;SDS011;14201;43.188;24.160;2022-09-12T06:58:21;3.17;;;0.80;;
26530;SDS011;14201;43.188;24.160;2022-09-12T07:00:47;1.35;;;0.70;;
26530;SDS011;14201;43.188;24.160;2022-09-12T07:03:12;0.82;;;0.68;;
26530;SDS011;14201;43.188;24.160;2022-09-12T07:05:38;1.50;;;0.50;;
26530;SDS011;14201;43.188;24.160;2022-09-12T07:08:04;0.70;;;0.60;;
26530;SDS011;14201;43.188;24.160;2022-09-12T07:10:30;1.13;;;0.60;;
26530;SDS011;14201;43.188;24.160;2022-09-12T07:12:56;2.60;;;0.60;;
26530;SDS011;14201;43.188;24.160;2022-09-12T07:15:23;1.52;;;0.70;;
26530;SDS011;14201;43.188;24.160;2022-09-12T07:17:48;0.68;;;0.65;;
26530;SDS011;14201;43.188;24.160;2022-09-12T07:20:14;2.45;;;0.65;;
26530;SDS011;14201;43.188;24.160;2022-09-12T07:22:40;0.57;;;0.57;;
26530;SDS011;14201;43.188;24.160;2022-09-12T07:25:05;3.75;;;0.75;;
26530;SDS011;14201;43.188;24.160;2022-09-12T07:27:31;1.30;;;0.77;;
26530;SDS011;14201;43.188;24.160;2022-09-12T07:29:57;0.80;;;0.70;;
26530;SDS011;14201;43.188;24.160;2022-09-12T07:32:23;2.72;;;0.80;;
26530;SDS011;14201;43.188;24.160;2022-09-12T07:34:50;1.45;;;0.63;;
26530;SDS011;14201;43.188;24.160;2022-09-12T07:49:24;1.17;;;0.60;;
26530;SDS011;14201;43.188;24.160;2022-09-12T07:51:50;4.22;;;0.70;;
26530;SDS011;14201;43.188;24.160;2022-09-12T14:33:32;4.05;;;1.70;;
26530;SDS011;14201;43.188;24.160;2022-09-12T14:36:16;2.78;;;1.83;;
26530;SDS011;14201;43.188;24.160;2022-09-12T14:38:43;2.90;;;1.95;;
26530;SDS011;14201;43.188;24.160;2022-09-12T14:41:13;3.47;;;2.33;;
26530;SDS011;14201;43.188;24.160;2022-09-12T14:43:49;6.15;;;2.00;;
26530;SDS011;14201;43.188;24.160;2022-09-12T14:46:19;2.38;;;1.95;;
26530;SDS011;14201;43.188;24.160;2022-09-12T14:54:33;2.63;;;1.90;;
26530;SDS011;14201;43.188;24.160;2022-09-12T14:57:01;2.13;;;1.65;;
26530;SDS011;14201;43.188;24.160;2022-09-12T14:59:39;3.35;;;1.67;;
26530;SDS011;14201;43.188;24.160;2022-09-12T15:07:44;3.75;;;2.00;;
26530;SDS011;14201;43.188;24.160;2022-09-12T15:10:28;2.92;;;1.60;;
26530;SDS011;14201;43.188;24.160;2022-09-12T15:15:31;2.47;;;1.70;;
26530;SDS011;14201;43.188;24.160;2022-09-12T15:17:57;2.47;;;1.70;;
26530;SDS011;14201;43.188;24.160;2022-09-12T15:20:23;3.42;;;1.77;;
26530;SDS011;14201;43.188;24.160;2022-09-12T15:22:49;2.65;;;1.90;;
26530;SDS011;14201;43.188;24.160;2022-09-12T19:54:01;2.72;;;1.80;;
26530;SDS011;14201;43.188;24.160;2022-09-12T19:56:27;3.55;;;1.80;;
26530;SDS011;14201;43.188;24.160;2022-09-12T19:58:53;2.75;;;1.90;;
26530;SDS011;14201;43.188;24.160;2022-09-12T20:01:22;2.20;;;1.90;;
26530;SDS011;14201;43.188;24.160;2022-09-12T20:03:49;5.28;;;1.75;;
26530;SDS011;14201;43.188;24.160;2022-09-12T20:06:17;2.35;;;1.85;;
26530;SDS011;14201;43.188;24.160;2022-09-12T20:08:44;3.70;;;1.90;;
26530;SDS011;14201;43.188;24.160;2022-09-12T20:11:11;2.50;;;1.70;;
26530;SDS011;14201;43.188;24.160;2022-09-12T20:13:39;5.63;;;2.10;;
26530;SDS011;14201;43.188;24.160;2022-09-12T20:16:09;5.05;;;1.70;;
26530;SDS011;14201;43.188;24.160;2022-09-12T20:18:39;4.45;;;1.63;;
26530;SDS011;14201;43.188;24.160;2022-09-12T20:21:15;4.15;;;1.77;;
26530;SDS011;14201;43.188;24.160;2022-09-12T20:23:42;3.88;;;1.88;;
26530;SDS011;14201;43.188;24.160;2022-09-12T20:26:09;2.92;;;1.73;;
26530;SDS011;14201;43.188;24.160;2022-09-12T20:28:35;2.47;;;1.70;;
26530;SDS011;14201;43.188;24.160;2022-09-12T20:31:05;3.92;;;1.95;;
26530;SDS011;14201;43.188;24.160;2022-09-12T20:33:33;1.95;;;1.75;;
26530;SDS011;14201;43.188;24.160;2022-09-12T20:38:29;2.10;;;1.90;;
26530;SDS011;14201;43.188;24.160;2022-09-12T20:40:54;4.00;;;2.10;;
26530;SDS011;14201;43.188;24.160;2022-09-12T20:43:20;1.85;;;1.50;;
26530;SDS011;14201;43.188;24.160;2022-09-12T20:45:46;2.35;;;1.80;;
26530;SDS011;14201;43.188;24.160;2022-09-12T20:48:11;2.33;;;1.90;;
26530;SDS011;14201;43.188;24.160;2022-09-12T20:50:37;3.20;;;1.58;;
26530;SDS011;14201;43.188;24.160;2022-09-12T20:53:03;2.15;;;1.83;;
26530;SDS011;14201;43.188;24.160;2022-09-12T20:55:29;4.28;;;1.98;;
26530;SDS011;14201;43.188;24.160;2022-09-12T20:57:55;5.38;;;2.00;;
26530;SDS011;14201;43.188;24.160;2022-09-12T21:00:20;3.22;;;1.98;;
26530;SDS011;14201;43.188;24.160;2022-09-12T21:02:46;2.60;;;1.60;;
26530;SDS011;14201;43.188;24.160;2022-09-12T21:05:14;2.42;;;1.90;;
26530;SDS011;14201;43.188;24.160;2022-09-12T21:07:40;3.00;;;2.10;;
26530;SDS011;14201;43.188;24.160;2022-09-12T21:10:06;2.45;;;1.98;;
26530;SDS011;14201;43.188;24.160;2022-09-12T21:12:31;2.33;;;1.98;;
26530;SDS011;14201;43.188;24.160;2022-09-12T21:14:57;2.30;;;1.65;;
26530;SDS011;14201;43.188;24.160;2022-09-12T21:17:23;4.03;;;2.05;;
26530;SDS011;14201;43.188;24.160;2022-09-12T21:19:48;3.65;;;2.55;;
26530;SDS011;14201;43.188;24.160;2022-09-12T21:22:14;2.80;;;2.08;;
26530;SDS011;14201;43.188;24.160;2022-09-12T21:24:39;3.85;;;2.10;;
26530;SDS011;14201;43.188;24.160;2022-09-12T21:27:05;4.40;;;2.50;;
26530;SDS011;14201;43.188;24.160;2022-09-12T21:29:31;2.90;;;2.35;;
26530;SDS011;14201;43.188;24.160;2022-09-12T21:31:56;3.30;;;2.40;;
26530;SDS011;14201;43.188;24.160;2022-09-12T21:34:22;7.07;;;2.47;;
26530;SDS011;14201;43.188;24.160;2022-09-12T21:36:47;3.38;;;2.45;;
26530;SDS011;14201;43.188;24.160;2022-09-12T21:39:13;4.85;;;2.50;;
26530;SDS011;14201;43.188;24.160;2022-09-12T21:41:39;4.32;;;2.70;;
26530;SDS011;14201;43.188;24.160;2022-09-12T21:44:04;3.45;;;2.60;;
26530;SDS011;14201;43.188;24.160;2022-09-12T21:46:31;3.63;;;2.72;;
26530;SDS011;14201;43.188;24.160;2022-09-12T21:48:57;3.75;;;2.75;;
26530;SDS011;14201;43.188;24.160;2022-09-12T21:51:22;3.83;;;2.90;;
26530;SDS011;14201;43.188;24.160;2022-09-12T21:53:48;2.47;;;2.17;;
26530;SDS011;14201;43.188;24.160;2022-09-12T21:56:14;3.03;;;2.40;;
26530;SDS011;14201;43.188;24.160;2022-09-12T21:58:39;3.33;;;2.72;;
26530;SDS011;14201;43.188;24.160;2022-09-12T22:01:05;3.83;;;2.75;;
26530;SDS011;14201;43.188;24.160;2022-09-12T22:03:33;8.15;;;2.60;;
26530;SDS011;14201;43.188;24.160;2022-09-12T22:06:00;6.05;;;2.58;;
26530;SDS011;14201;43.188;24.160;2022-09-12T22:08:27;4.75;;;2.75;;
26530;SDS011;14201;43.188;24.160;2022-09-12T22:11:00;6.82;;;2.78;;
26530;SDS011;14201;43.188;24.160;2022-09-12T22:13:29;4.20;;;3.00;;
26530;SDS011;14201;43.188;24.160;2022-09-12T22:15:56;3.95;;;3.03;;
26530;SDS011;14201;43.188;24.160;2022-09-12T22:18:22;3.78;;;3.13;;
26530;SDS011;14201;43.188;24.160;2022-09-12T22:20:47;3.83;;;2.70;;
26530;SDS011;14201;43.188;24.160;2022-09-12T22:23:13;4.00;;;3.00;;
26530;SDS011;14201;43.188;24.160;2022-09-12T22:25:58;5.47;;;2.85;;
26530;SDS011;14201;43.188;24.160;2022-09-12T22:28:26;4.68;;;2.58;;
26530;SDS011;14201;43.188;24.160;2022-09-12T22:30:53;3.63;;;2.80;;
26530;SDS011;14201;43.188;24.160;2022-09-12T22:33:19;2.92;;;2.40;;
26530;SDS011;14201;43.188;24.160;2022-09-12T22:35:45;3.75;;;2.90;;
26530;SDS011;14201;43.188;24.160;2022-09-12T22:38:11;5.80;;;2.90;;
26530;SDS011;14201;43.188;24.160;2022-09-12T22:40:37;4.72;;;2.60;;
26530;SDS011;14201;43.188;24.160;2022-09-12T22:43:03;7.60;;;3.35;;
26530;SDS011;14201;43.188;24.160;2022-09-12T22:45:28;5.00;;;3.33;;
26530;SDS011;14201;43.188;24.160;2022-09-12T22:47:54;3.30;;;2.95;;
26530;SDS011;14201;43.188;24.160;2022-09-12T22:50:19;3.38;;;3.00;;
26530;SDS011;14201;43.188;24.160;2022-09-12T22:52:45;3.80;;;3.00;;
26530;SDS011;14201;43.188;24.160;2022-09-12T22:55:11;6.25;;;2.95;;
26530;SDS011;14201;43.188;24.160;2022-09-12T22:57:37;7.10;;;3.05;;
26530;SDS011;14201;43.188;24.160;2022-09-12T23:00:03;4.30;;;2.80;;
26530;SDS011;14201;43.188;24.160;2022-09-12T23:02:37;6.65;;;2.85;;
26530;SDS011;14201;43.188;24.160;2022-09-12T23:05:03;5.35;;;3.22;;
26530;SDS011;14201;43.188;24.160;2022-09-12T23:07:29;4.10;;;2.97;;
26530;SDS011;14201;43.188;24.160;2022-09-12T23:09:54;4.13;;;2.60;;
26530;SDS011;14201;43.188;24.160;2022-09-12T23:12:20;3.33;;;3.03;;
26530;SDS011;14201;43.188;24.160;2022-09-12T23:14:46;4.88;;;2.55;;
26530;SDS011;14201;43.188;24.160;2022-09-12T23:17:11;7.68;;;2.78;;
26530;SDS011;14201;43.188;24.160;2022-09-12T23:19:37;4.53;;;3.17;;
26530;SDS011;14201;43.188;24.160;2022-09-12T23:22:03;4.68;;;2.90;;
26530;SDS011;14201;43.188;24.160;2022-09-12T23:24:29;6.07;;;2.63;;
26530;SDS011;14201;43.188;24.160;2022-09-12T23:26:55;4.07;;;2.53;;
26530;SDS011;14201;43.188;24.160;2022-09-12T23:29:21;4.20;;;2.55;;
26530;SDS011;14201;43.188;24.160;2022-09-12T23:31:47;5.80;;;2.97;;
26530;SDS011;14201;43.188;24.160;2022-09-12T23:34:12;3.20;;;2.58;;
26530;SDS011;14201;43.188;24.160;2022-09-12T23:36:38;4.93;;;2.65;;
26530;SDS011;14201;43.188;24.160;2022-09-12T23:39:04;5.28;;;2.63;;
26530;SDS011;14201;43.188;24.160;2022-09-12T23:41:29;6.00;;;2.40;;
26530;SDS011;14201;43.188;24.160;2022-09-12T23:43:55;3.03;;;2.20;;
26530;SDS011;14201;43.188;24.160;2022-09-12T23:46:21;4.30;;;2.25;;
26530;SDS011;14201;43.188;24.160;2022-09-12T23:48:47;5.55;;;2.28;;
26530;SDS011;14201;43.188;24.160;2022-09-12T23:51:13;4.15;;;2.60;;
26530;SDS011;14201;43.188;24.160;2022-09-12T23:53:39;2.40;;;2.10;;
26530;SDS011;14201;43.188;24.160;2022-09-12T23:56:05;6.00;;;2.05;;
26530;SDS011;14201;43.188;24.160;2022-09-12T23:58:31;2.88;;;2.40;;
